Time;durP1;ratioP1;P1;durP2;ratioP2;P2;SDS_P1;SDS_P2;PMS_P1;PMS_P2;Temp;Humidity;BMP_temperature;BMP_pressure;BME280_temperature;BME280_humidity;BME280_pressure;Samples;Min_cycle;Max_cycle;Signal;HPM_P1;HPM_P2
2021/10/09 00:01:32;;;;;;;6.97;4.45;;;10.00;53.60;;;;;;5034021;28;20048;-51
2021/10/09 00:03:58;;;;;;;6.30;4.43;;;10.00;53.60;;;;;;5034301;28;20053;-54
2021/10/09 00:06:23;;;;;;;7.15;4.60;;;10.00;53.70;;;;;;5034149;28;20105;-51
2021/10/09 00:08:49;;;;;;;8.00;4.15;;;9.90;53.80;;;;;;5034066;28;20018;-51
2021/10/09 00:11:20;;;;;;;8.20;4.63;;;9.90;53.70;;;;;;5029987;28;20013;-53
2021/10/09 00:13:47;;;;;;;6.22;3.95;;;9.90;53.50;;;;;;5014644;28;20482;-54
2021/10/09 00:16:14;;;;;;;7.47;4.60;;;9.90;53.50;;;;;;5014201;28;20038;-54
2021/10/09 00:18:40;;;;;;;6.53;3.80;;;9.90;53.40;;;;;;5027198;28;20021;-52
2021/10/09 00:21:05;;;;;;;6.60;4.57;;;9.90;53.40;;;;;;5033857;28;20033;-51
2021/10/09 00:23:31;;;;;;;5.97;4.28;;;9.80;53.30;;;;;;5033849;28;20059;-54
2021/10/09 00:25:57;;;;;;;7.15;3.83;;;9.80;53.20;;;;;;5033757;28;20446;-52
2021/10/09 00:28:24;;;;;;;5.90;3.63;;;9.80;53.20;;;;;;5033552;28;20029;-52
2021/10/09 00:30:49;;;;;;;6.82;4.20;;;9.80;53.10;;;;;;5016413;28;20018;-51
2021/10/09 00:33:15;;;;;;;5.50;3.88;;;9.70;53.00;;;;;;5013936;28;20076;-52
2021/10/09 00:35:41;;;;;;;5.22;3.88;;;9.70;53.20;;;;;;5027404;28;20038;-52
2021/10/09 00:38:06;;;;;;;6.07;4.00;;;9.70;53.30;;;;;;5033613;28;20105;-51
2021/10/09 00:40:32;;;;;;;5.95;4.15;;;9.60;53.40;;;;;;5032172;28;20421;-51
2021/10/09 00:42:58;;;;;;;9.07;4.18;;;9.60;53.20;;;;;;5032381;28;20389;-51
2021/10/09 00:45:24;;;;;;;6.45;4.30;;;9.60;53.80;;;;;;5032703;28;20029;-52
2021/10/09 00:47:50;;;;;;;8.77;3.65;;;9.60;53.30;;;;;;5015367;28;20108;-51
2021/10/09 00:50:16;;;;;;;4.88;3.67;;;9.50;53.60;;;;;;5030616;28;20029;-51
2021/10/09 00:52:44;;;;;;;6.72;4.18;;;9.50;53.80;;;;;;5032581;28;20072;-53
2021/10/09 00:55:10;;;;;;;6.40;4.50;;;9.50;53.90;;;;;;5032599;28;20021;-52
2021/10/09 00:57:39;;;;;;;5.80;4.53;;;9.60;54.00;;;;;;5032159;28;20555;-51
2021/10/09 01:00:06;;;;;;;7.50;4.22;;;9.50;54.00;;;;;;5032563;28;20102;-54
2021/10/09 01:02:36;;;;;;;5.20;4.07;;;9.50;53.60;;;;;;5026357;28;20489;-51
2021/10/09 01:05:02;;;;;;;6.70;3.70;;;9.50;53.90;;;;;;5027403;28;20063;-51
2021/10/09 01:07:28;;;;;;;7.10;3.70;;;9.50;53.80;;;;;;5032398;28;20037;-51
2021/10/09 01:09:53;;;;;;;6.97;3.58;;;9.50;53.90;;;;;;5032294;28;20021;-54
2021/10/09 01:12:19;;;;;;;6.38;3.70;;;9.50;53.90;;;;;;5032647;28;20489;-53
2021/10/09 01:14:45;;;;;;;5.80;3.60;;;9.40;53.80;;;;;;5032154;28;20026;-50
2021/10/09 01:17:14;;;;;;;6.65;4.05;;;9.50;54.00;;;;;;5032454;28;20032;-54
2021/10/09 01:19:41;;;;;;;5.78;3.65;;;9.50;54.00;;;;;;5026999;28;20078;-51
2021/10/09 01:22:08;;;;;;;5.15;3.38;;;9.50;54.20;;;;;;5032606;28;20080;-52
2021/10/09 01:24:34;;;;;;;5.88;3.50;;;9.50;54.20;;;;;;5032025;28;20072;-52
2021/10/09 01:27:00;;;;;;;7.18;3.92;;;9.50;54.10;;;;;;5032158;28;20412;-52
2021/10/09 01:29:26;;;;;;;5.60;3.70;;;9.50;54.20;;;;;;5032286;28;20132;-52
2021/10/09 01:31:52;;;;;;;6.45;3.60;;;9.50;54.20;;;;;;5032335;28;20030;-50
2021/10/09 01:34:30;;;;;;;4.93;3.72;;;9.50;54.30;;;;;;5018605;28;20026;-52
2021/10/09 01:36:57;;;;;;;4.85;3.50;;;9.50;54.20;;;;;;5012498;28;20428;-54
2021/10/09 01:39:23;;;;;;;4.38;3.33;;;9.50;54.50;;;;;;4968605;28;1264818;-53
2021/10/09 01:41:50;;;;;;;4.82;3.47;;;9.50;54.40;;;;;;5021521;28;20171;-51
2021/10/09 01:44:17;;;;;;;4.65;3.63;;;9.40;54.10;;;;;;5036922;28;20036;-51
2021/10/09 01:46:43;;;;;;;7.65;4.53;;;9.40;53.80;;;;;;5031707;28;20084;-53
2021/10/09 01:49:09;;;;;;;4.63;3.38;;;9.40;53.80;;;;;;5027389;28;20469;-52
2021/10/09 01:51:35;;;;;;;5.82;3.53;;;9.30;53.80;;;;;;5029194;28;20044;-50
2021/10/09 01:54:01;;;;;;;3.60;3.05;;;9.30;53.90;;;;;;5036733;28;20029;-51
2021/10/09 01:56:27;;;;;;;5.63;3.50;;;9.30;53.90;;;;;;5036702;28;20037;-51
2021/10/09 01:58:53;;;;;;;5.70;3.70;;;9.20;53.90;;;;;;5036363;28;20029;-51
2021/10/09 02:01:18;;;;;;;5.35;3.60;;;9.20;53.80;;;;;;5036500;28;20029;-50
2021/10/09 02:03:46;;;;;;;5.25;3.60;;;9.10;53.60;;;;;;5036451;28;20381;-50
2021/10/09 02:06:12;;;;;;;6.32;3.40;;;9.10;53.50;;;;;;5036706;28;20377;-50
2021/10/09 02:08:38;;;;;;;7.43;3.90;;;9.10;53.60;;;;;;5026643;28;20026;-50
2021/10/09 02:11:06;;;;;;;5.28;3.33;;;9.10;54.00;;;;;;5016792;28;20076;-50
2021/10/09 02:13:47;;;;;;;6.68;3.97;;;9.00;54.00;;;;;;5016829;28;20053;-52
2021/10/09 02:26:38;;;;;;;5.38;3.42;;;8.90;54.10;;;;;;5018549;28;20040;-51
2021/10/09 02:29:04;;;;;;;4.25;3.60;;;8.90;54.10;;;;;;5024704;28;20025;-53
2021/10/09 02:31:30;;;;;;;4.57;3.60;;;8.90;53.90;;;;;;5036565;28;20079;-50
2021/10/09 02:33:56;;;;;;;6.32;3.58;;;8.90;54.30;;;;;;5036014;28;20053;-52
2021/10/09 02:36:21;;;;;;;5.30;3.50;;;8.80;54.30;;;;;;5035787;28;20059;-54
2021/10/09 02:38:47;;;;;;;4.38;3.55;;;8.80;54.40;;;;;;5035774;28;20057;-50
2021/10/09 02:41:13;;;;;;;6.30;3.70;;;8.80;54.60;;;;;;5034878;28;20092;-53
2021/10/09 02:43:39;;;;;;;4.45;3.47;;;8.80;54.50;;;;;;5032248;28;20032;-53
2021/10/09 02:46:05;;;;;;;5.13;3.65;;;8.80;54.40;;;;;;5035910;28;20537;-50
2021/10/09 02:48:31;;;;;;;5.43;3.55;;;8.80;54.50;;;;;;5035619;28;20025;-50
2021/10/09 02:50:56;;;;;;;7.10;3.53;;;8.80;54.50;;;;;;5036041;28;20026;-52
2021/10/09 02:53:22;;;;;;;5.88;3.72;;;8.70;54.60;;;;;;5017514;28;20074;-51
2021/10/09 02:55:47;;;;;;;3.95;3.08;;;8.70;54.40;;;;;;5035615;28;20064;-50
2021/10/09 02:58:13;;;;;;;4.80;3.53;;;8.70;54.40;;;;;;5035852;28;20040;-52
2021/10/09 03:00:39;;;;;;;6.20;3.50;;;8.70;54.40;;;;;;5031817;28;20025;-51
2021/10/09 03:03:05;;;;;;;5.32;3.38;;;8.70;54.40;;;;;;5035408;28;20036;-53
2021/10/09 03:05:30;;;;;;;5.35;3.72;;;8.70;54.50;;;;;;5035408;28;20071;-53
2021/10/09 03:07:56;;;;;;;4.05;3.10;;;8.60;54.50;;;;;;5035179;28;20025;-50
2021/10/09 03:10:23;;;;;;;5.32;3.38;;;8.60;54.70;;;;;;5035551;28;20056;-51
2021/10/09 03:12:49;;;;;;;5.97;3.72;;;8.60;54.70;;;;;;5035171;28;20025;-50
2021/10/09 03:15:14;;;;;;;5.65;3.97;;;8.60;55.40;;;;;;5025725;28;20036;-52
2021/10/09 03:17:40;;;;;;;5.05;3.85;;;8.60;54.80;;;;;;5015398;28;20112;-51
2021/10/09 03:20:09;;;;;;;5.93;3.40;;;8.50;54.70;;;;;;5033477;28;20079;-50
2021/10/09 03:22:35;;;;;;;4.35;3.40;;;8.50;54.80;;;;;;5035332;28;20040;-51
2021/10/09 03:25:01;;;;;;;5.35;3.67;;;8.50;54.90;;;;;;5034980;28;20037;-50
2021/10/09 03:27:26;;;;;;;6.25;3.55;;;8.40;54.80;;;;;;5035093;28;20385;-51
2021/10/09 03:29:52;;;;;;;5.22;3.70;;;8.40;54.80;;;;;;5034885;28;20052;-51
2021/10/09 03:32:18;;;;;;;5.72;3.80;;;8.40;55.00;;;;;;5025258;28;20045;-51
2021/10/09 03:34:44;;;;;;;4.82;3.60;;;8.40;54.70;;;;;;5015012;28;20034;-51
2021/10/09 03:37:11;;;;;;;5.22;3.30;;;8.40;54.70;;;;;;5015162;28;20034;-51
2021/10/09 03:39:40;;;;;;;6.93;3.78;;;8.30;54.80;;;;;;5015038;28;20046;-50
2021/10/09 03:42:10;;;;;;;5.55;3.45;;;8.30;54.90;;;;;;5025142;28;20025;-51
2021/10/09 03:44:51;;;;;;;4.88;3.35;;;8.30;55.00;;;;;;5034748;28;20063;-51
2021/10/09 03:47:32;;;;;;;3.90;3.20;;;8.30;54.80;;;;;;5034244;28;20018;-51
2021/10/09 03:50:07;;;;;;;4.90;4.30;;;8.30;54.60;;;;;;5033699;28;20030;-50
2021/10/09 03:55:11;;;;;;;4.90;3.30;;;8.20;54.80;;;;;;5033809;28;20029;-51
2021/10/09 03:57:37;;;;;;;5.75;3.72;;;8.30;54.70;;;;;;5033324;28;20477;-53
2021/10/09 04:00:07;;;;;;;5.25;4.05;;;8.20;54.80;;;;;;5033798;28;20034;-51
2021/10/09 04:02:33;;;;;;;8.88;3.90;;;8.20;54.70;;;;;;5033246;28;20025;-51
2021/10/09 04:04:59;;;;;;;4.50;3.45;;;8.20;54.80;;;;;;5024576;28;20034;-50
2021/10/09 04:07:25;;;;;;;4.43;3.50;;;8.20;54.80;;;;;;5014664;28;20108;-50
2021/10/09 04:09:51;;;;;;;5.40;3.60;;;8.20;54.90;;;;;;5014657;28;20026;-50
2021/10/09 04:12:17;;;;;;;5.05;3.33;;;8.20;55.60;;;;;;5014557;28;20022;-51
2021/10/09 04:14:42;;;;;;;5.30;4.03;;;8.20;54.80;;;;;;5014250;28;20469;-51
2021/10/09 04:17:08;;;;;;;4.05;3.20;;;8.20;55.00;;;;;;5031598;28;20029;-51
2021/10/09 04:19:34;;;;;;;4.75;3.50;;;8.10;55.10;;;;;;5033849;28;20033;-51
2021/10/09 04:21:59;;;;;;;5.72;3.45;;;8.10;55.30;;;;;;5033555;28;20029;-50
2021/10/09 04:24:25;;;;;;;5.80;3.80;;;8.10;55.30;;;;;;5034077;28;20029;-52
2021/10/09 04:26:51;;;;;;;5.47;3.55;;;8.10;55.20;;;;;;5033945;28;20037;-52
2021/10/09 04:29:16;;;;;;;5.82;3.67;;;8.10;55.40;;;;;;5034050;28;20024;-51
2021/10/09 04:31:42;;;;;;;5.85;3.70;;;8.10;55.10;;;;;;5033660;28;20027;-54
2021/10/09 04:34:08;;;;;;;4.00;3.40;;;8.10;55.40;;;;;;5033806;28;20060;-51
2021/10/09 04:36:34;;;;;;;4.90;3.65;;;8.10;55.10;;;;;;5033624;28;20443;-52
2021/10/09 04:38:59;;;;;;;5.03;3.70;;;8.10;55.10;;;;;;5033406;28;20123;-53
2021/10/09 04:41:25;;;;;;;6.10;3.58;;;8.10;54.90;;;;;;5024234;28;20053;-51
2021/10/09 04:43:51;;;;;;;6.05;3.40;;;8.10;55.10;;;;;;5032915;28;20091;-53
2021/10/09 04:46:16;;;;;;;5.72;3.45;;;8.10;55.00;;;;;;5033549;28;20477;-51
2021/10/09 04:48:42;;;;;;;4.43;3.25;;;8.10;55.00;;;;;;5033175;28;20036;-51
2021/10/09 04:51:07;;;;;;;6.60;3.70;;;8.10;55.20;;;;;;5033317;28;20037;-51
2021/10/09 04:53:33;;;;;;;5.50;3.53;;;8.10;55.10;;;;;;5033393;28;20029;-53
2021/10/09 04:55:59;;;;;;;5.43;3.50;;;8.10;55.10;;;;;;5026869;28;20045;-52
2021/10/09 04:58:24;;;;;;;5.03;3.40;;;8.10;55.00;;;;;;5016765;28;20025;-51
2021/10/09 05:00:51;;;;;;;5.20;3.30;;;8.10;55.30;;;;;;5033143;28;20024;-52
2021/10/09 05:03:17;;;;;;;5.00;4.03;;;8.10;55.10;;;;;;5033363;28;20033;-52
2021/10/09 05:05:43;;;;;;;5.45;3.72;;;8.20;55.10;;;;;;5033182;28;20027;-52
2021/10/09 05:08:09;;;;;;;4.15;3.22;;;8.10;55.10;;;;;;5033341;28;20032;-54
2021/10/09 05:10:35;;;;;;;6.25;3.60;;;8.20;55.00;;;;;;5015447;28;20025;-51
2021/10/09 05:13:01;;;;;;;4.90;3.17;;;8.20;55.20;;;;;;5018218;28;20095;-51
2021/10/09 05:15:27;;;;;;;5.47;3.65;;;8.20;55.10;;;;;;5015290;28;20060;-51
2021/10/09 05:17:53;;;;;;;4.45;3.22;;;8.20;55.00;;;;;;5021384;28;20450;-53
2021/10/09 05:20:19;;;;;;;5.00;3.40;;;8.20;55.00;;;;;;5032550;28;20032;-54
2021/10/09 05:22:45;;;;;;;4.47;3.40;;;8.30;55.10;;;;;;5032775;28;20033;-51
2021/10/09 05:25:11;;;;;;;5.07;3.85;;;8.30;55.20;;;;;;5033073;28;20033;-51
2021/10/09 05:27:38;;;;;;;4.85;3.50;;;8.30;55.20;;;;;;5024094;28;20021;-52
2021/10/09 05:30:07;;;;;;;4.80;3.20;;;8.40;55.10;;;;;;5027820;28;20022;-52
2021/10/09 05:32:35;;;;;;;6.07;3.80;;;8.40;55.00;;;;;;5029264;28;20026;-53
2021/10/09 05:35:00;;;;;;;5.15;3.42;;;8.40;54.80;;;;;;5028569;28;20140;-54
2021/10/09 05:37:27;;;;;;;4.63;3.50;;;8.50;54.90;;;;;;5028191;28;20670;-53
2021/10/09 05:39:52;;;;;;;5.35;3.42;;;8.50;55.00;;;;;;5032227;28;20046;-51
2021/10/09 05:42:18;;;;;;;7.47;3.80;;;8.50;54.80;;;;;;5020179;28;20029;-52
2021/10/09 05:44:44;;;;;;;6.00;3.47;;;8.60;54.80;;;;;;5030267;28;20038;-52
2021/10/09 05:47:09;;;;;;;5.40;3.35;;;8.60;54.60;;;;;;5023331;28;20022;-52
2021/10/09 05:49:36;;;;;;;5.88;3.67;;;8.60;54.60;;;;;;5031231;28;20028;-52
2021/10/09 05:52:12;;;;;;;6.07;3.90;;;8.60;54.70;;;;;;5032583;28;20487;-53
2021/10/09 05:57:27;;;;;;;5.15;3.38;;;8.80;55.00;;;;;;5029856;28;20084;-53
2021/10/09 06:00:13;;;;;;;4.53;3.47;;;8.90;54.80;;;;;;5023063;28;20034;-52
2021/10/09 06:59:44;;;;;;;2.92;2.63;;;9.90;52.80;;;;;;5010640;28;20092;-51
2021/10/09 07:02:11;;;;;;;3.92;3.03;;;10.00;52.60;;;;;;5008991;28;20030;-50
2021/10/09 07:04:37;;;;;;;3.25;2.83;;;9.90;52.70;;;;;;5012920;28;20056;-52
2021/10/09 07:07:06;;;;;;;6.95;3.10;;;10.00;52.80;;;;;;5005354;28;20029;-51
2021/10/09 07:09:31;;;;;;;3.95;2.75;;;10.00;52.50;;;;;;5012891;28;20084;-51
2021/10/09 07:11:57;;;;;;;2.88;2.63;;;10.00;52.30;;;;;;5012342;28;20037;-51
2021/10/09 07:14:23;;;;;;;6.03;2.88;;;10.10;52.10;;;;;;5011229;28;20026;-52
2021/10/09 07:16:49;;;;;;;6.68;3.10;;;10.10;51.90;;;;;;5013315;28;20018;-52
2021/10/09 07:19:15;;;;;;;6.40;3.22;;;10.10;52.00;;;;;;5012692;28;20049;-50
2021/10/09 07:21:41;;;;;;;6.43;3.45;;;10.10;52.00;;;;;;4995970;28;20026;-51
2021/10/09 07:24:06;;;;;;;4.68;3.20;;;10.10;51.90;;;;;;5013028;28;20605;-52
2021/10/09 07:26:33;;;;;;;5.45;2.90;;;10.10;51.90;;;;;;5011216;28;20087;-51
2021/10/09 07:28:59;;;;;;;3.83;2.80;;;10.20;52.00;;;;;;5000242;28;20037;-51
2021/10/09 07:31:25;;;;;;;3.95;2.60;;;10.20;51.80;;;;;;5013236;28;20053;-52
2021/10/09 07:33:51;;;;;;;9.43;3.15;;;10.20;51.70;;;;;;5008715;28;20108;-51
2021/10/09 07:36:17;;;;;;;4.68;2.70;;;10.30;51.70;;;;;;5011908;28;20026;-51
2021/10/09 07:38:44;;;;;;;3.20;2.55;;;10.30;51.50;;;;;;5009620;28;20033;-52
2021/10/09 07:41:10;;;;;;;2.83;2.50;;;10.30;51.10;;;;;;4972222;28;20031;-51
2021/10/09 07:43:36;;;;;;;2.78;2.42;;;10.40;51.10;;;;;;4980747;28;20041;-53
2021/10/09 07:46:01;;;;;;;3.80;2.38;;;10.50;51.30;;;;;;4981799;28;20064;-53
2021/10/09 07:48:27;;;;;;;4.13;2.63;;;10.50;51.20;;;;;;4979816;28;20479;-50
2021/10/09 07:50:55;;;;;;;4.22;2.65;;;10.60;51.20;;;;;;4978413;28;20030;-51
2021/10/09 07:53:21;;;;;;;3.40;2.53;;;10.70;51.10;;;;;;4974379;28;20030;-51
2021/10/09 07:55:47;;;;;;;3.22;2.70;;;10.80;51.00;;;;;;4974749;28;20038;-51
2021/10/09 07:58:13;;;;;;;2.72;2.53;;;10.80;50.90;;;;;;4986318;28;20041;-51
2021/10/09 08:00:39;;;;;;;4.78;2.60;;;11.00;50.90;;;;;;4981622;28;20034;-51
2021/10/09 08:03:04;;;;;;;4.22;2.60;;;11.00;50.80;;;;;;4980847;28;20037;-51
2021/10/09 08:05:33;;;;;;;3.40;2.38;;;11.10;50.20;;;;;;4983463;28;20057;-52
2021/10/09 08:07:59;;;;;;;4.07;2.70;;;11.20;50.00;;;;;;4981743;28;20089;-51
2021/10/09 08:10:24;;;;;;;3.88;2.60;;;11.30;50.00;;;;;;4983045;28;20030;-50
2021/10/09 08:12:50;;;;;;;4.78;2.28;;;11.30;50.20;;;;;;4981792;28;20026;-50
2021/10/09 08:15:16;;;;;;;2.90;2.42;;;11.40;49.80;;;;;;4980285;28;20043;-51
2021/10/09 08:17:41;;;;;;;2.55;2.13;;;11.50;49.70;;;;;;4985353;28;20030;-51
2021/10/09 08:20:08;;;;;;;2.38;2.17;;;11.50;49.70;;;;;;4980648;28;20035;-52
2021/10/09 08:22:38;;;;;;;2.55;2.08;;;11.60;49.70;;;;;;4980116;28;20034;-52
2021/10/09 08:25:42;;;;;;;2.65;2.30;;;11.70;49.30;;;;;;4988928;28;20342;-54
2021/10/09 08:36:29;;;;;;;2.60;2.10;;;11.70;48.70;;;;;;4989083;28;20497;-51
2021/10/09 08:38:55;;;;;;;2.80;2.20;;;11.70;48.70;;;;;;4992444;28;20046;-51
2021/10/09 08:41:21;;;;;;;2.60;2.40;;;11.70;48.80;;;;;;4991939;28;20053;-53
2021/10/09 08:43:49;;;;;;;4.13;2.58;;;11.70;48.80;;;;;;4989460;28;20068;-51
2021/10/09 08:46:18;;;;;;;2.15;1.98;;;11.70;48.60;;;;;;4989996;28;20085;-52
2021/10/09 08:48:47;;;;;;;4.82;2.40;;;11.70;48.60;;;;;;4986788;28;20097;-51
2021/10/09 08:51:21;;;;;;;2.22;2.00;;;11.70;48.50;;;;;;4986923;28;20479;-51
2021/10/09 08:53:47;;;;;;;2.45;2.25;;;11.70;48.30;;;;;;4990679;28;20022;-53
2021/10/09 08:56:37;;;;;;;3.70;2.53;;;11.70;48.30;;;;;;4993796;28;20577;-51
2021/10/09 08:59:21;;;;;;;2.45;2.17;;;11.70;48.60;;;;;;4986983;28;20188;-52
2021/10/09 09:02:02;;;;;;;4.13;2.30;;;11.70;48.30;;;;;;4991818;28;20034;-54
2021/10/09 09:05:20;;;;;;;5.37;2.30;;;11.80;48.40;;;;;;4991301;28;20775;-54
2021/10/09 09:35:20;;;;;;;1.85;1.63;;;12.00;48.30;;;;;;4990102;28;20033;-53
2021/10/09 09:40:18;;;;;;;2.25;1.90;;;12.00;47.90;;;;;;4989678;28;20153;-51
2021/10/09 09:42:44;;;;;;;2.58;1.90;;;12.00;47.70;;;;;;4987866;28;20101;-53
2021/10/09 09:45:11;;;;;;;3.70;2.00;;;12.00;47.70;;;;;;4986348;28;20034;-51
2021/10/09 09:47:41;;;;;;;2.50;2.00;;;12.10;47.80;;;;;;4992313;28;20034;-53
2021/10/09 09:50:10;;;;;;;3.92;2.10;;;12.10;47.70;;;;;;4985131;28;20482;-52
2021/10/09 09:52:37;;;;;;;2.70;2.10;;;12.10;47.60;;;;;;4990160;28;20475;-51
2021/10/09 09:55:04;;;;;;;3.13;2.22;;;12.10;47.30;;;;;;4991566;28;20439;-52
2021/10/09 09:57:32;;;;;;;3.67;2.10;;;12.10;47.60;;;;;;4973230;28;20111;-52
2021/10/09 10:00:01;;;;;;;3.00;1.85;;;12.10;47.60;;;;;;4989047;28;20113;-55
2021/10/09 10:02:29;;;;;;;2.05;1.77;;;12.10;47.40;;;;;;4978783;28;20060;-53
2021/10/09 10:04:58;;;;;;;2.45;1.70;;;12.10;47.80;;;;;;4986042;28;20041;-52
2021/10/09 10:07:23;;;;;;;1.85;1.73;;;12.10;47.40;;;;;;4994507;28;20084;-51
2021/10/09 10:09:49;;;;;;;2.30;2.10;;;12.10;47.50;;;;;;4997151;28;20093;-53
2021/10/09 10:12:16;;;;;;;3.45;2.15;;;12.10;47.40;;;;;;4991044;28;20033;-51
2021/10/09 10:14:43;;;;;;;2.45;2.25;;;12.10;47.20;;;;;;4996335;28;20023;-52
2021/10/09 10:17:09;;;;;;;2.83;2.42;;;12.20;47.00;;;;;;4991299;28;20100;-52
2021/10/09 10:19:50;;;;;;;2.10;1.90;;;12.20;46.90;;;;;;4997679;28;20030;-52
2021/10/09 10:22:36;;;;;;;3.17;1.75;;;12.20;47.00;;;;;;4996203;28;20026;-52
2021/10/09 10:25:26;;;;;;;2.00;1.90;;;12.20;46.80;;;;;;4985901;28;20125;-51
2021/10/09 10:28:08;;;;;;;1.90;1.80;;;12.20;46.60;;;;;;4990186;28;20034;-52
2021/10/09 10:30:34;;;;;;;2.58;1.92;;;12.30;46.50;;;;;;4994926;28;20509;-53
2021/10/09 10:32:59;;;;;;;2.80;1.85;;;12.40;46.40;;;;;;4986692;28;20023;-52
2021/10/09 10:35:46;;;;;;;3.85;2.00;;;12.40;46.50;;;;;;4990337;28;20035;-52
2021/10/09 10:38:18;;;;;;;2.70;1.80;;;12.50;46.70;;;;;;4983829;28;20412;-53
2021/10/09 10:41:05;;;;;;;3.63;1.80;;;12.60;46.80;;;;;;4990836;28;20058;-51
2021/10/09 10:46:19;;;;;;;2.60;1.70;;;12.70;47.20;;;;;;4991416;28;20041;-52
2021/10/09 10:51:39;;;;;;;3.72;1.77;;;12.90;46.70;;;;;;4990396;28;20072;-52
2021/10/09 10:54:18;;;;;;;2.72;1.77;;;12.90;46.30;;;;;;4993570;28;20089;-52
2021/10/09 11:02:22;;;;;;;1.63;1.52;;;12.90;45.40;;;;;;4987760;28;20042;-52
2021/10/09 11:05:00;;;;;;;1.95;1.73;;;12.90;45.90;;;;;;4991532;28;20034;-52
2021/10/09 11:07:33;;;;;;;3.03;1.60;;;12.90;45.60;;;;;;4989031;28;20030;-52
2021/10/09 11:10:06;;;;;;;1.80;1.70;;;12.90;45.00;;;;;;4985404;28;20037;-52
2021/10/09 11:12:34;;;;;;;1.80;1.70;;;12.90;44.80;;;;;;4995101;28;20022;-52
2021/10/09 11:15:19;;;;;;;1.60;1.42;;;12.90;45.00;;;;;;4990713;28;20038;-51
2021/10/09 11:17:48;;;;;;;1.70;1.60;;;12.80;44.90;;;;;;4988365;28;20030;-52
2021/10/09 11:20:41;;;;;;;1.52;1.42;;;12.80;45.00;;;;;;4991543;28;20030;-53
2021/10/09 11:23:09;;;;;;;1.45;1.35;;;12.80;45.30;;;;;;4990969;28;20041;-51
2021/10/09 11:25:46;;;;;;;1.70;1.60;;;12.80;45.60;;;;;;4991271;28;20073;-55
2021/10/09 11:28:23;;;;;;;1.70;1.58;;;12.80;45.60;;;;;;4988641;28;20053;-51
2021/10/09 11:30:49;;;;;;;2.28;1.75;;;12.80;45.80;;;;;;4987921;28;20041;-55
2021/10/09 11:33:20;;;;;;;1.42;1.33;;;12.80;46.10;;;;;;4988460;28;20030;-52
2021/10/09 11:35:46;;;;;;;2.75;1.70;;;12.80;46.00;;;;;;4991557;28;20038;-55
2021/10/09 11:38:21;;;;;;;2.60;1.58;;;12.70;45.90;;;;;;4987921;28;20022;-51
2021/10/09 11:40:53;;;;;;;2.22;1.80;;;12.80;45.80;;;;;;4988171;28;20054;-52
2021/10/09 11:43:27;;;;;;;1.70;1.60;;;12.80;45.60;;;;;;4987672;28;20089;-51
2021/10/09 11:54:46;;;;;;;2.80;1.48;;;12.80;45.30;;;;;;4990117;28;20033;-52
2021/10/09 11:57:23;;;;;;;1.83;1.73;;;12.80;45.20;;;;;;4991389;28;20467;-52
2021/10/09 11:59:48;;;;;;;1.50;1.40;;;12.90;45.20;;;;;;4994948;28;20100;-51
2021/10/09 12:02:36;;;;;;;2.25;1.80;;;12.90;45.10;;;;;;4995582;28;20022;-51
2021/10/09 12:05:03;;;;;;;1.73;1.63;;;12.90;45.50;;;;;;4995351;28;20031;-51
2021/10/09 12:07:28;;;;;;;1.65;1.55;;;13.00;45.80;;;;;;4995474;28;20034;-52
2021/10/09 12:10:01;;;;;;;2.13;1.92;;;13.00;46.00;;;;;;4994762;28;20026;-52
2021/10/09 12:12:35;;;;;;;2.67;1.70;;;13.00;45.50;;;;;;4989053;28;20038;-51
2021/10/09 12:15:01;;;;;;;1.50;1.40;;;13.00;45.00;;;;;;4991812;28;20034;-52
2021/10/09 12:17:38;;;;;;;1.70;1.60;;;13.00;45.30;;;;;;4995420;28;20062;-51
2021/10/09 12:20:06;;;;;;;2.00;1.80;;;13.10;45.30;;;;;;4995648;28;20033;-52
2021/10/09 12:22:44;;;;;;;1.70;1.60;;;13.10;45.50;;;;;;4995574;28;20018;-52
2021/10/09 12:25:26;;;;;;;1.63;1.50;;;13.10;45.30;;;;;;4994894;28;20362;-51
2021/10/09 12:28:17;;;;;;;;;;;13.10;44.80;;;;;;4988165;28;20026;-51
2021/10/09 12:30:47;;;;;;;;;;;13.10;44.70;;;;;;4972599;28;19906;-52
2021/10/09 12:33:36;;;;;;;2.95;1.60;;;13.10;44.80;;;;;;4976033;28;20354;-54
2021/10/09 12:36:31;;;;;;;1.88;1.70;;;13.10;44.50;;;;;;4975497;28;20034;-52
2021/10/09 12:39:24;;;;;;;2.33;1.90;;;13.20;44.20;;;;;;4975402;28;20081;-51
2021/10/09 12:41:54;;;;;;;2.20;2.00;;;13.20;44.30;;;;;;4984146;28;20441;-52
2021/10/09 12:44:21;;;;;;;2.30;1.60;;;13.20;43.90;;;;;;4985325;28;20042;-52
2021/10/09 12:46:47;;;;;;;2.45;1.70;;;13.30;43.70;;;;;;4991524;28;20719;-52
2021/10/09 12:49:13;;;;;;;3.33;2.20;;;13.30;43.40;;;;;;4994786;28;20026;-52
2021/10/09 12:51:39;;;;;;;2.33;1.90;;;13.30;43.60;;;;;;4995004;28;20034;-51
2021/10/09 12:54:06;;;;;;;2.28;2.03;;;13.30;44.20;;;;;;4994853;28;20026;-52
2021/10/09 12:56:34;;;;;;;2.05;1.88;;;13.40;44.60;;;;;;4994635;28;20030;-52
2021/10/09 12:59:00;;;;;;;3.47;2.00;;;13.40;44.80;;;;;;4993958;28;20031;-52
2021/10/09 13:01:27;;;;;;;2.22;2.03;;;13.40;44.80;;;;;;4986814;28;20026;-51
2021/10/09 13:03:52;;;;;;;1.90;1.80;;;13.50;44.30;;;;;;4992930;28;20034;-52
2021/10/09 13:06:18;;;;;;;2.22;2.00;;;13.50;44.10;;;;;;4994431;28;20110;-52
2021/10/09 13:08:44;;;;;;;2.15;1.95;;;13.50;44.10;;;;;;4994312;28;20011;-52
2021/10/09 13:11:09;;;;;;;2.58;2.13;;;13.50;44.20;;;;;;4994362;28;20109;-55
2021/10/09 13:13:35;;;;;;;2.88;2.20;;;13.60;44.70;;;;;;4994438;28;20076;-51
2021/10/09 13:16:01;;;;;;;3.78;2.28;;;13.60;44.90;;;;;;4991978;28;20018;-51
2021/10/09 13:18:26;;;;;;;2.15;1.95;;;13.60;45.60;;;;;;4993488;28;20097;-54
2021/10/09 13:20:52;;;;;;;2.65;2.00;;;13.60;45.40;;;;;;4993347;28;20037;-51
2021/10/09 13:23:18;;;;;;;2.65;2.38;;;13.60;46.00;;;;;;4994111;28;20032;-52
2021/10/09 13:25:43;;;;;;;3.50;2.20;;;13.60;46.30;;;;;;4994017;28;20096;-51
2021/10/09 13:28:10;;;;;;;2.20;1.98;;;13.60;45.80;;;;;;4994090;28;20053;-52
2021/10/09 13:30:36;;;;;;;2.97;2.22;;;13.60;45.60;;;;;;4994116;28;20029;-51
2021/10/09 13:33:02;;;;;;;3.88;2.30;;;13.60;45.30;;;;;;4989165;28;20348;-51
2021/10/09 13:35:27;;;;;;;3.35;2.47;;;13.60;45.30;;;;;;4974112;28;20081;-52
2021/10/09 13:37:57;;;;;;;3.78;2.95;;;13.60;44.90;;;;;;4988890;28;20030;-52
2021/10/09 13:40:24;;;;;;;4.60;2.50;;;13.60;44.80;;;;;;5012982;28;20099;-52
2021/10/09 13:42:50;;;;;;;4.82;2.28;;;13.60;45.00;;;;;;5017789;28;20104;-51
2021/10/09 13:45:16;;;;;;;3.17;2.15;;;13.60;44.80;;;;;;5017298;28;20153;-52
2021/10/09 13:47:42;;;;;;;3.20;2.33;;;13.50;44.70;;;;;;5017997;28;20663;-52
2021/10/09 13:50:08;;;;;;;3.78;2.53;;;13.50;44.50;;;;;;5014047;28;20083;-52
2021/10/09 13:52:34;;;;;;;5.45;2.70;;;13.50;44.50;;;;;;4996868;28;20021;-52
2021/10/09 13:54:59;;;;;;;5.15;2.90;;;13.50;45.20;;;;;;5012400;28;20030;-52
2021/10/09 13:57:25;;;;;;;3.53;2.50;;;13.50;44.60;;;;;;5016176;28;20026;-52
2021/10/09 13:59:51;;;;;;;3.17;2.42;;;13.50;44.60;;;;;;5016482;28;20063;-52
2021/10/09 14:02:16;;;;;;;3.35;2.50;;;13.50;44.60;;;;;;5016116;28;20034;-52
2021/10/09 14:04:42;;;;;;;2.80;2.55;;;13.50;44.30;;;;;;5016203;28;20038;-51
2021/10/09 14:07:08;;;;;;;3.22;2.75;;;13.50;44.20;;;;;;5016035;28;20026;-52
2021/10/09 14:09:34;;;;;;;4.75;2.95;;;13.40;44.00;;;;;;5001936;28;20027;-51
2021/10/09 14:12:00;;;;;;;3.95;2.53;;;13.40;43.90;;;;;;5012459;28;20022;-52
2021/10/09 14:14:28;;;;;;;2.97;2.40;;;13.40;43.90;;;;;;5017214;28;20080;-51
2021/10/09 14:16:55;;;;;;;3.53;2.50;;;13.40;43.80;;;;;;5017009;28;20482;-53
2021/10/09 14:19:21;;;;;;;3.35;2.25;;;13.40;44.30;;;;;;5017445;28;20052;-52
2021/10/09 14:21:46;;;;;;;3.65;2.78;;;13.40;43.90;;;;;;5017142;28;20033;-51
2021/10/09 14:24:14;;;;;;;2.50;2.10;;;13.40;44.20;;;;;;5012643;28;20027;-52
2021/10/09 14:26:40;;;;;;;2.65;2.42;;;13.40;44.30;;;;;;4997277;28;20409;-51
2021/10/09 14:29:06;;;;;;;4.22;2.20;;;13.30;44.50;;;;;;5014107;28;20096;-51
2021/10/09 14:31:31;;;;;;;2.80;2.30;;;13.30;44.50;;;;;;5016984;28;20105;-52
2021/10/09 14:33:57;;;;;;;3.17;2.40;;;13.30;44.50;;;;;;5016947;28;20389;-51
2021/10/09 14:36:23;;;;;;;3.65;2.38;;;13.30;44.60;;;;;;5016844;28;20032;-52
2021/10/09 14:38:48;;;;;;;3.10;2.22;;;13.30;44.70;;;;;;5013145;28;20046;-51
2021/10/09 14:41:14;;;;;;;3.10;2.17;;;13.30;45.00;;;;;;4996316;28;20073;-51
2021/10/09 14:43:41;;;;;;;3.40;2.72;;;13.30;45.20;;;;;;4977680;28;20023;-52
2021/10/09 14:48:53;;;;;;;4.03;2.55;;;13.30;45.00;;;;;;4996320;28;20073;-52
2021/10/09 14:51:43;;;;;;;3.90;2.50;;;13.30;44.90;;;;;;4997222;28;20386;-52
2021/10/09 14:54:31;;;;;;;6.60;3.25;;;13.30;44.70;;;;;;4996963;28;20038;-51
2021/10/09 15:18:38;;;;;;;2.97;2.70;;;13.10;45.30;;;;;;4996611;28;20042;-51
2021/10/09 15:21:04;;;;;;;5.60;2.45;;;13.00;44.90;;;;;;4996650;28;20027;-52
2021/10/09 15:23:29;;;;;;;5.88;3.35;;;13.00;45.30;;;;;;4996324;28;20391;-51
2021/10/09 15:25:55;;;;;;;6.50;3.47;;;13.00;45.60;;;;;;4995306;28;20486;-52
2021/10/09 15:28:21;;;;;;;5.40;3.30;;;13.00;45.80;;;;;;4995936;28;20101;-52
2021/10/09 15:30:47;;;;;;;5.13;4.30;;;13.00;45.70;;;;;;4990835;28;20088;-51
2021/10/09 15:33:13;;;;;;;6.22;4.32;;;13.00;45.80;;;;;;4985446;28;20026;-52
2021/10/09 15:35:40;;;;;;;5.30;3.95;;;13.00;45.90;;;;;;4995604;28;20022;-50